createdAt,value
2023-08-14T00:01:22.095Z,61.00
2023-08-14T00:03:50.025Z,61.00
2023-08-14T00:06:17.898Z,61.00
2023-08-14T00:08:47.258Z,61.00
2023-08-14T00:11:15.126Z,61.10
2023-08-14T00:13:53.819Z,61.00
2023-08-14T00:16:22.095Z,61.10
2023-08-14T00:18:50.114Z,61.10
2023-08-14T00:21:18.286Z,61.10
2023-08-14T00:23:47.505Z,61.10
2023-08-14T00:26:15.470Z,61.20
2023-08-14T00:28:43.444Z,61.30
2023-08-14T00:31:11.463Z,61.30
2023-08-14T00:33:39.334Z,61.30
2023-08-14T00:36:07.809Z,61.30
2023-08-14T00:38:35.743Z,61.30
2023-08-14T00:41:04.904Z,61.40
2023-08-14T00:43:32.707Z,61.50
2023-08-14T00:46:02.092Z,61.60
2023-08-14T00:48:30.562Z,61.60
2023-08-14T00:50:58.576Z,61.60
2023-08-14T00:53:28.355Z,61.70
2023-08-14T00:55:56.587Z,61.70
2023-08-14T00:58:26.934Z,61.70
2023-08-14T01:00:55.952Z,61.80
2023-08-14T01:03:26.031Z,61.70
2023-08-14T01:05:53.949Z,61.70
2023-08-14T01:08:21.951Z,61.90
2023-08-14T01:10:59.310Z,61.90
2023-08-14T01:13:36.020Z,61.90
2023-08-14T01:16:08.142Z,61.90
2023-08-14T01:18:39.055Z,61.90
2023-08-14T01:21:14.791Z,62.00
2023-08-14T01:23:51.813Z,62.10
2023-08-14T01:26:21.056Z,62.10
2023-08-14T01:28:49.300Z,62.10
2023-08-14T01:31:17.272Z,62.10
2023-08-14T01:33:45.166Z,62.20
2023-08-14T01:36:21.096Z,62.20
2023-08-14T01:38:58.356Z,62.30
2023-08-14T01:41:34.062Z,62.30
2023-08-14T01:44:04.636Z,62.30
2023-08-14T01:46:35.269Z,62.40
2023-08-14T01:49:04.856Z,62.50
2023-08-14T01:51:33.621Z,62.60
2023-08-14T01:54:01.747Z,62.70
2023-08-14T01:56:30.922Z,62.60
2023-08-14T01:58:58.816Z,62.70
2023-08-14T02:01:27.063Z,62.70
2023-08-14T02:03:55.067Z,62.80
2023-08-14T02:06:23.019Z,62.80
2023-08-14T02:08:50.819Z,62.80
2023-08-14T02:11:18.779Z,62.80
2023-08-14T02:13:47.999Z,62.90
2023-08-14T02:16:15.887Z,62.90
2023-08-14T02:18:43.873Z,62.80
2023-08-14T02:21:11.867Z,63.50
2023-08-14T02:23:39.786Z,63.00
2023-08-14T02:26:07.669Z,63.00
2023-08-14T02:28:35.546Z,63.00
2023-08-14T02:31:05.503Z,63.00
2023-08-14T02:33:33.558Z,63.00
2023-08-14T02:36:01.474Z,63.00
2023-08-14T02:38:31.369Z,63.00
2023-08-14T02:40:59.291Z,63.10
2023-08-14T02:43:27.192Z,63.10
2023-08-14T02:45:55.026Z,63.10
2023-08-14T02:48:24.494Z,63.20
2023-08-14T02:50:52.433Z,63.20
2023-08-14T02:53:20.251Z,63.20
2023-08-14T02:55:51.854Z,63.30
2023-08-14T02:58:20.296Z,63.40
2023-08-14T03:00:48.460Z,63.40
2023-08-14T03:03:16.627Z,63.50
2023-08-14T03:05:46.113Z,63.50
2023-08-14T03:08:13.931Z,63.50
2023-08-14T03:10:41.708Z,63.50
2023-08-14T03:13:10.869Z,63.60
2023-08-14T03:15:38.736Z,63.50
2023-08-14T03:18:06.723Z,63.60
2023-08-14T03:20:34.695Z,63.60
2023-08-14T03:23:04.050Z,63.70
2023-08-14T03:25:31.991Z,63.70
2023-08-14T03:27:59.841Z,63.70
2023-08-14T03:30:28.082Z,63.80
2023-08-14T03:32:56.213Z,63.80
2023-08-14T03:35:24.206Z,63.80
2023-08-14T03:37:52.094Z,63.70
2023-08-14T03:40:21.354Z,63.70
2023-08-14T03:42:49.206Z,63.70
2023-08-14T03:45:17.091Z,63.80
2023-08-14T03:47:44.963Z,63.80
2023-08-14T03:50:12.869Z,63.90
2023-08-14T03:52:41.105Z,63.80
2023-08-14T03:55:09.715Z,63.80
2023-08-14T03:57:38.996Z,63.80
2023-08-14T04:00:09.231Z,63.80
2023-08-14T04:02:37.386Z,63.80
2023-08-14T04:05:06.118Z,63.80
2023-08-14T04:07:34.159Z,63.80
2023-08-14T04:10:02.364Z,63.70
2023-08-14T04:12:30.304Z,63.80
2023-08-14T04:15:13.904Z,63.70
2023-08-14T04:17:41.820Z,63.70
2023-08-14T04:20:10.713Z,63.80
2023-08-14T04:22:38.583Z,63.80
2023-08-14T04:25:07.590Z,63.80
2023-08-14T04:27:37.336Z,63.80
2023-08-14T04:30:07.451Z,63.70
2023-08-14T04:32:35.476Z,63.70
2023-08-14T04:35:04.653Z,63.80
2023-08-14T04:37:32.934Z,63.70
2023-08-14T04:40:00.909Z,65.80
2023-08-14T04:42:28.875Z,66.80
2023-08-14T04:44:56.736Z,65.50
2023-08-14T04:47:25.956Z,65.10
2023-08-14T04:49:53.850Z,65.00
2023-08-14T04:52:23.340Z,64.10
2023-08-14T04:54:51.643Z,63.90
2023-08-14T04:57:19.649Z,64.60
2023-08-14T04:59:47.827Z,64.70
2023-08-14T05:02:15.986Z,64.70
2023-08-14T05:04:45.519Z,64.30
2023-08-14T05:07:13.445Z,64.30
2023-08-14T05:09:41.368Z,65.00
2023-08-14T05:12:09.530Z,65.70
2023-08-14T05:14:37.388Z,65.90
2023-08-14T05:17:05.383Z,65.90
2023-08-14T05:19:33.510Z,65.90
2023-08-14T05:22:02.719Z,65.90
2023-08-14T05:24:30.714Z,66.60
2023-08-14T05:26:58.577Z,67.90
2023-08-14T05:29:26.434Z,67.30
2023-08-14T05:31:54.285Z,67.20
2023-08-14T05:34:22.154Z,66.90
2023-08-14T05:36:50.027Z,67.00
2023-08-14T05:39:20.418Z,66.50
2023-08-14T05:41:48.274Z,66.20
2023-08-14T05:44:16.120Z,66.00
2023-08-14T05:46:46.641Z,66.00
2023-08-14T05:49:17.006Z,66.30
2023-08-14T05:51:45.823Z,66.10
2023-08-14T05:54:13.791Z,66.10
2023-08-14T05:56:42.986Z,66.50
2023-08-14T05:59:10.920Z,66.10
2023-08-14T06:01:39.997Z,66.20
2023-08-14T06:04:08.394Z,65.90
2023-08-14T06:06:36.371Z,66.20
2023-08-14T06:09:04.387Z,65.80
2023-08-14T06:11:32.344Z,64.30
2023-08-14T06:14:01.514Z,64.80
2023-08-14T06:16:29.591Z,65.90
2023-08-14T06:18:57.588Z,65.50
2023-08-14T06:21:25.654Z,65.30
2023-08-14T06:23:53.731Z,64.80
2023-08-14T06:26:22.279Z,64.50
2023-08-14T06:28:50.179Z,64.10
2023-08-14T06:31:19.545Z,63.80
2023-08-14T06:33:47.929Z,63.60
2023-08-14T06:36:16.405Z,63.40
2023-08-14T06:38:44.298Z,63.00
2023-08-14T06:41:12.117Z,63.20
2023-08-14T06:43:39.973Z,61.90
2023-08-14T06:46:08.006Z,61.70
2023-08-14T06:48:37.257Z,61.20
2023-08-14T06:51:05.300Z,60.70
2023-08-14T06:53:33.910Z,60.40
2023-08-14T06:56:01.837Z,60.20
2023-08-14T06:58:29.803Z,60.00
2023-08-14T07:00:57.747Z,60.00
2023-08-14T07:03:25.660Z,59.40
2023-08-14T07:05:55.074Z,58.60
2023-08-14T07:08:22.951Z,58.90
2023-08-14T07:10:50.756Z,58.30
2023-08-14T07:13:18.978Z,57.70
2023-08-14T07:15:48.621Z,57.40
2023-08-14T07:18:17.117Z,57.40
2023-08-14T07:20:46.227Z,57.10
2023-08-14T07:23:15.725Z,57.30
2023-08-14T07:25:43.484Z,57.60
2023-08-14T07:28:11.474Z,56.90
2023-08-14T07:30:40.652Z,56.50
2023-08-14T07:33:09.007Z,56.20
2023-08-14T07:35:36.905Z,55.80
2023-08-14T07:38:05.394Z,55.30
2023-08-14T07:40:34.581Z,53.70
2023-08-14T07:43:02.479Z,53.60
2023-08-14T07:45:30.261Z,53.50
2023-08-14T07:47:58.133Z,53.20
2023-08-14T07:50:26.078Z,52.50
2023-08-14T07:52:53.929Z,51.90
2023-08-14T07:55:21.982Z,51.60
2023-08-14T07:57:51.098Z,51.50
2023-08-14T08:00:19.502Z,51.50
2023-08-14T08:02:47.557Z,51.60
2023-08-14T08:05:17.408Z,51.60
2023-08-14T08:07:46.722Z,51.70
2023-08-14T08:10:14.543Z,51.40
2023-08-14T08:12:42.430Z,51.20
2023-08-14T08:15:12.070Z,51.20
2023-08-14T08:17:40.157Z,51.20
2023-08-14T08:20:09.210Z,51.20
2023-08-14T08:22:37.199Z,50.80
2023-08-14T08:25:05.702Z,50.90
2023-08-14T08:27:33.663Z,51.00
2023-08-14T08:30:01.535Z,51.20
2023-08-14T08:32:31.299Z,51.30
2023-08-14T08:34:59.331Z,51.20
2023-08-14T08:37:27.183Z,51.10
2023-08-14T08:39:55.000Z,51.00
2023-08-14T08:42:24.223Z,50.90
2023-08-14T08:44:54.999Z,50.80
2023-08-14T08:47:26.604Z,50.40
2023-08-14T08:49:56.731Z,50.10
2023-08-14T08:52:25.747Z,49.40
2023-08-14T08:54:54.391Z,48.30
2023-08-14T08:57:23.062Z,48.60
2023-08-14T08:59:52.805Z,47.60
2023-08-14T09:02:21.162Z,47.10
2023-08-14T09:04:49.318Z,47.20
2023-08-14T09:07:18.877Z,45.90
2023-08-14T09:09:47.158Z,44.70
2023-08-14T09:12:15.342Z,44.40
2023-08-14T09:14:45.263Z,44.70
2023-08-14T09:17:14.625Z,43.00
2023-08-14T09:19:44.798Z,42.50
2023-08-14T09:22:12.751Z,40.70
2023-08-14T09:24:41.956Z,40.20
2023-08-14T09:27:10.680Z,39.50
2023-08-14T09:29:38.558Z,38.60
2023-08-14T09:32:06.474Z,39.00
2023-08-14T09:34:34.409Z,38.20
2023-08-14T09:37:02.183Z,36.10
2023-08-14T09:39:30.096Z,38.80
2023-08-14T09:41:59.271Z,41.30
2023-08-14T09:44:27.167Z,44.20
2023-08-14T09:46:55.952Z,45.20
2023-08-14T09:49:24.259Z,45.10
2023-08-14T09:51:56.796Z,45.90
2023-08-14T09:54:35.375Z,46.20
2023-08-14T09:57:09.617Z,46.40
2023-08-14T09:59:38.296Z,46.10
2023-08-14T10:02:13.624Z,46.10
2023-08-14T10:04:42.797Z,45.90
2023-08-14T10:07:11.960Z,46.50
2023-08-14T10:09:45.794Z,46.40
2023-08-14T10:12:17.501Z,45.90
2023-08-14T10:14:52.512Z,45.60
2023-08-14T10:17:23.331Z,45.80
2023-08-14T10:19:54.251Z,44.60
2023-08-14T10:22:24.471Z,44.50
2023-08-14T10:24:55.955Z,44.20
2023-08-14T10:27:26.800Z,44.70
2023-08-14T10:29:54.750Z,43.70
2023-08-14T10:32:23.530Z,44.50
2023-08-14T10:34:52.114Z,44.20
2023-08-14T10:37:27.907Z,44.00
2023-08-14T10:40:13.933Z,44.10
2023-08-14T10:42:46.157Z,44.50
2023-08-14T10:45:16.785Z,44.30
2023-08-14T10:47:45.825Z,44.30
2023-08-14T10:50:19.994Z,44.50
2023-08-14T10:52:50.191Z,44.40
2023-08-14T10:55:20.561Z,44.50
2023-08-14T10:57:49.771Z,44.40
2023-08-14T11:00:21.662Z,44.80
2023-08-14T11:02:54.710Z,44.60
2023-08-14T11:05:25.318Z,44.40
2023-08-14T11:08:01.599Z,44.30
2023-08-14T11:10:29.777Z,44.60
2023-08-14T11:12:59.751Z,44.60
2023-08-14T11:15:27.890Z,44.60
2023-08-14T11:17:56.066Z,44.30
2023-08-14T11:20:24.005Z,44.20
2023-08-14T11:22:51.877Z,44.20
2023-08-14T11:25:19.772Z,44.20
2023-08-14T11:27:50.575Z,43.90
2023-08-14T11:32:54.675Z,44.20
2023-08-14T11:37:55.447Z,44.60
2023-08-14T11:40:23.280Z,44.60
2023-08-14T11:42:52.190Z,44.60
2023-08-14T11:45:21.495Z,44.50
2023-08-14T11:47:50.826Z,44.50
2023-08-14T11:50:20.199Z,44.70
2023-08-14T11:52:48.218Z,45.10
2023-08-14T11:55:16.258Z,45.50
2023-08-14T11:57:45.897Z,44.80
2023-08-14T12:00:17.808Z,45.20
2023-08-14T12:02:52.463Z,45.50
2023-08-14T12:05:22.159Z,46.00
2023-08-14T12:07:50.174Z,45.60
2023-08-14T12:10:18.329Z,45.20
2023-08-14T12:12:54.953Z,45.10
2023-08-14T12:15:24.977Z,44.90
2023-08-14T12:17:54.536Z,44.30
2023-08-14T12:20:23.228Z,44.40
2023-08-14T12:22:59.429Z,44.00
2023-08-14T12:25:30.296Z,44.00
2023-08-14T12:27:59.597Z,43.70
2023-08-14T12:30:27.423Z,43.30
2023-08-14T12:32:59.627Z,43.30
2023-08-14T12:35:27.510Z,43.50
2023-08-14T12:37:55.834Z,43.60
2023-08-14T12:40:25.338Z,43.40
2023-08-14T12:42:54.461Z,43.70
2023-08-14T12:45:22.343Z,43.60
2023-08-14T12:47:50.213Z,43.90
2023-08-14T12:50:19.648Z,43.90
2023-08-14T12:52:47.525Z,43.90
2023-08-14T12:55:19.032Z,43.70
2023-08-14T12:57:48.662Z,43.30
2023-08-14T13:00:17.458Z,43.90
2023-08-14T13:02:45.382Z,44.10
2023-08-14T13:05:13.301Z,43.50
2023-08-14T13:07:42.721Z,43.60
2023-08-14T13:10:11.042Z,43.90
2023-08-14T13:12:38.941Z,42.90
2023-08-14T13:15:07.776Z,43.70
2023-08-14T13:17:35.636Z,41.90
2023-08-14T13:20:03.925Z,42.20
2023-08-14T13:22:31.809Z,42.20
2023-08-14T13:25:00.996Z,41.50
2023-08-14T13:27:28.629Z,41.50
2023-08-14T13:29:56.448Z,41.40
2023-08-14T13:32:24.277Z,41.30
2023-08-14T13:34:52.085Z,41.60
2023-08-14T13:37:19.940Z,42.10
2023-08-14T13:39:48.664Z,42.40
2023-08-14T13:42:18.073Z,43.10
2023-08-14T13:44:46.098Z,43.70
2023-08-14T13:47:15.368Z,44.40
2023-08-14T13:49:44.995Z,45.20
2023-08-14T13:52:12.809Z,45.60
2023-08-14T13:54:40.751Z,46.40
2023-08-14T13:57:08.559Z,46.70
2023-08-14T13:59:37.754Z,47.20
2023-08-14T14:02:05.541Z,47.90
2023-08-14T14:04:33.409Z,48.40
2023-08-14T14:07:02.694Z,48.90
2023-08-14T14:09:30.714Z,49.20
2023-08-14T14:11:58.738Z,49.00
2023-08-14T14:14:26.570Z,48.80
2023-08-14T14:17:00.479Z,48.70
2023-08-14T14:19:29.285Z,48.70
2023-08-14T14:21:58.497Z,48.70
2023-08-14T14:24:26.886Z,48.70
2023-08-14T14:26:54.769Z,48.80
2023-08-14T14:29:22.826Z,48.80
2023-08-14T14:31:50.716Z,48.60
2023-08-14T14:34:20.289Z,48.80
2023-08-14T14:36:48.258Z,49.00
2023-08-14T14:39:16.724Z,49.10
2023-08-14T14:41:44.588Z,49.90
2023-08-14T14:44:13.063Z,49.90
2023-08-14T14:46:42.480Z,49.90
2023-08-14T14:49:10.514Z,49.40
2023-08-14T14:51:39.741Z,49.20
2023-08-14T14:54:07.996Z,48.30
2023-08-14T14:56:36.060Z,47.00
2023-08-14T14:59:03.922Z,43.10
2023-08-14T15:01:31.767Z,44.30
2023-08-14T15:03:59.779Z,45.30
2023-08-14T15:06:27.678Z,45.70
2023-08-14T15:08:56.922Z,46.00
2023-08-14T15:11:24.742Z,47.10
2023-08-14T15:13:52.565Z,47.20
2023-08-14T15:16:20.423Z,47.10
2023-08-14T15:18:48.274Z,47.80
2023-08-14T15:21:16.147Z,48.50
2023-08-14T15:23:44.255Z,49.20
2023-08-14T15:26:13.474Z,50.00
2023-08-14T15:28:41.119Z,50.30
2023-08-14T15:31:08.952Z,50.50
2023-08-14T15:33:36.887Z,50.50
2023-08-14T15:36:05.100Z,50.10
2023-08-14T15:38:32.919Z,49.50
2023-08-14T15:41:00.699Z,48.90
2023-08-14T15:43:29.986Z,47.90
2023-08-14T15:46:04.824Z,47.20
2023-08-14T15:48:32.877Z,46.70
2023-08-14T15:51:00.648Z,46.70
2023-08-14T15:53:28.523Z,46.10
2023-08-14T15:55:56.364Z,45.80
2023-08-14T15:58:24.229Z,45.40
2023-08-14T16:00:53.812Z,45.40
2023-08-14T16:03:21.721Z,45.40
2023-08-14T16:05:55.648Z,45.50
2023-08-14T16:08:23.500Z,46.20
2023-08-14T16:10:51.318Z,45.90
2023-08-14T16:13:19.183Z,45.80
2023-08-14T16:15:47.125Z,45.80
2023-08-14T16:18:16.344Z,45.50
2023-08-14T16:20:44.016Z,45.80
2023-08-14T16:23:12.286Z,46.20
2023-08-14T16:25:40.402Z,46.70
2023-08-14T16:28:08.337Z,47.20
2023-08-14T16:30:36.185Z,47.70
2023-08-14T16:33:05.087Z,47.90
2023-08-14T16:35:34.452Z,48.50
2023-08-14T16:38:02.090Z,49.50
2023-08-14T16:40:29.979Z,49.70
2023-08-14T16:42:57.814Z,49.40
2023-08-14T16:45:26.274Z,49.60
2023-08-14T16:47:54.125Z,49.90
2023-08-14T16:50:21.961Z,49.80
2023-08-14T16:52:51.173Z,49.80
2023-08-14T16:55:18.901Z,50.10
2023-08-14T16:57:46.765Z,50.30
2023-08-14T17:00:15.463Z,50.50
2023-08-14T17:02:43.277Z,50.50
2023-08-14T17:05:11.686Z,50.60
2023-08-14T17:07:39.597Z,50.50
2023-08-14T17:10:09.152Z,50.50
2023-08-14T17:12:37.089Z,50.40
2023-08-14T17:15:05.530Z,51.00
2023-08-14T17:17:33.373Z,51.30
2023-08-14T17:20:01.222Z,51.30
2023-08-14T17:22:29.100Z,51.30
2023-08-14T17:24:57.037Z,52.10
2023-08-14T17:27:26.231Z,52.20
2023-08-14T17:29:54.001Z,52.60
2023-08-14T17:32:21.921Z,52.70
2023-08-14T17:34:49.901Z,53.20
2023-08-14T17:37:18.254Z,53.40
2023-08-14T17:39:46.593Z,53.60
2023-08-14T17:42:14.382Z,53.90
2023-08-14T17:44:44.236Z,54.40
2023-08-14T17:47:12.029Z,54.70
2023-08-14T17:49:39.844Z,55.00
2023-08-14T17:52:07.770Z,54.90
2023-08-14T17:54:35.610Z,55.50
2023-08-14T17:57:03.531Z,55.50
2023-08-14T17:59:31.406Z,55.90
2023-08-14T18:02:00.670Z,56.30
2023-08-14T18:04:28.383Z,56.70
2023-08-14T18:06:56.467Z,56.90
2023-08-14T18:09:24.331Z,57.10
2023-08-14T18:11:52.234Z,57.90
2023-08-14T18:14:20.110Z,58.00
2023-08-14T18:16:47.948Z,58.30
2023-08-14T18:21:47.830Z,58.80
2023-08-14T18:24:15.674Z,59.10
2023-08-14T18:26:43.781Z,59.10
2023-08-14T18:29:11.726Z,59.60
2023-08-14T18:31:39.572Z,59.80
2023-08-14T18:34:07.972Z,59.70
2023-08-14T18:36:37.299Z,59.90
2023-08-14T18:39:06.034Z,60.20
2023-08-14T18:41:34.306Z,60.20
2023-08-14T18:44:02.131Z,60.80
2023-08-14T18:46:29.973Z,60.90
2023-08-14T18:48:57.819Z,61.10
2023-08-14T18:51:25.712Z,61.30
2023-08-14T18:53:55.359Z,61.40
2023-08-14T18:56:23.310Z,61.50
2023-08-14T18:58:51.906Z,62.00
2023-08-14T19:01:19.802Z,62.10
2023-08-14T19:03:47.657Z,61.80
2023-08-14T19:06:15.515Z,62.30
2023-08-14T19:08:43.334Z,62.60
2023-08-14T19:11:13.048Z,63.00
2023-08-14T19:13:41.705Z,63.00
2023-08-14T19:16:09.605Z,63.20
2023-08-14T19:18:37.457Z,63.30
2023-08-14T19:21:05.656Z,63.50
2023-08-14T19:23:33.458Z,63.70
2023-08-14T19:26:06.534Z,63.50
2023-08-14T19:28:41.399Z,63.50
2023-08-14T19:31:09.547Z,63.60
2023-08-14T19:33:40.306Z,63.70
2023-08-14T19:36:08.121Z,63.80
2023-08-14T19:38:36.196Z,63.70
2023-08-14T19:41:04.059Z,63.60
2023-08-14T19:43:31.915Z,63.50
2023-08-14T19:46:01.067Z,63.50
2023-08-14T19:48:29.006Z,63.50
2023-08-14T19:50:58.132Z,63.50
2023-08-14T19:53:26.126Z,63.60
2023-08-14T19:55:53.949Z,63.50
2023-08-14T19:58:23.212Z,63.60
2023-08-14T20:00:51.581Z,63.80
2023-08-14T20:03:20.855Z,63.90
2023-08-14T20:05:49.047Z,64.00
2023-08-14T20:08:17.357Z,64.00
2023-08-14T20:10:47.374Z,64.10
2023-08-14T20:13:15.483Z,64.20
2023-08-14T20:15:46.582Z,64.30
2023-08-14T20:18:17.691Z,64.30
2023-08-14T20:20:47.051Z,64.30
2023-08-14T20:23:14.865Z,64.40
2023-08-14T20:25:44.307Z,64.20
2023-08-14T20:28:12.862Z,64.20
2023-08-14T20:30:42.797Z,64.00
2023-08-14T20:33:10.956Z,64.10
2023-08-14T20:35:42.567Z,63.90
2023-08-14T20:38:12.635Z,64.00
2023-08-14T20:40:41.145Z,63.90
2023-08-14T20:43:10.735Z,63.90
2023-08-14T20:45:39.273Z,64.20
2023-08-14T20:48:08.543Z,64.20
2023-08-14T20:50:37.161Z,64.40
2023-08-14T20:53:05.749Z,64.70
2023-08-14T20:55:35.676Z,64.90
2023-08-14T20:58:03.567Z,65.00
2023-08-14T21:00:31.458Z,64.90
2023-08-14T21:02:59.352Z,65.00
2023-08-14T21:05:27.384Z,65.10
2023-08-14T21:07:55.305Z,65.20
2023-08-14T21:10:23.131Z,65.30
2023-08-14T21:12:52.469Z,65.30
2023-08-14T21:15:20.289Z,65.30
2023-08-14T21:17:48.176Z,65.40
2023-08-14T21:20:16.036Z,65.50
2023-08-14T21:22:45.749Z,65.40
2023-08-14T21:25:13.560Z,65.40
2023-08-14T21:27:41.368Z,65.40
2023-08-14T21:30:11.975Z,66.10
2023-08-14T21:32:40.023Z,65.50
2023-08-14T21:35:08.783Z,66.00
2023-08-14T21:37:37.700Z,66.00
2023-08-14T21:40:06.098Z,66.30
2023-08-14T21:42:33.874Z,66.30
2023-08-14T21:45:01.653Z,66.60
2023-08-14T21:47:30.826Z,66.80
2023-08-14T21:49:58.669Z,66.90
2023-08-14T21:52:26.760Z,67.00
2023-08-14T21:54:54.950Z,67.10
2023-08-14T21:57:22.899Z,67.20
2023-08-14T21:59:50.990Z,67.40
2023-08-14T22:02:18.830Z,67.50
2023-08-14T22:04:48.130Z,67.70
2023-08-14T22:07:16.547Z,67.70
2023-08-14T22:09:44.354Z,67.60
2023-08-14T22:12:12.195Z,67.70
2023-08-14T22:14:40.039Z,67.90
2023-08-14T22:17:07.880Z,67.90
2023-08-14T22:19:35.724Z,68.00
2023-08-14T22:22:05.061Z,67.80
2023-08-14T22:24:40.772Z,68.00
2023-08-14T22:27:09.467Z,68.00
2023-08-14T22:29:37.360Z,67.90
2023-08-14T22:32:05.377Z,68.00
2023-08-14T22:34:33.216Z,68.00
2023-08-14T22:37:01.154Z,68.00
2023-08-14T22:39:31.972Z,68.20
2023-08-14T22:42:00.029Z,68.10
2023-08-14T22:44:27.884Z,68.20
2023-08-14T22:46:55.716Z,68.20
2023-08-14T22:49:23.528Z,68.30
2023-08-14T22:51:51.451Z,68.40
2023-08-14T22:54:19.312Z,68.40
2023-08-14T22:56:48.520Z,68.30
2023-08-14T22:59:16.453Z,68.50
2023-08-14T23:01:44.320Z,68.60
2023-08-14T23:04:12.247Z,68.70
2023-08-14T23:06:40.132Z,68.70
2023-08-14T23:09:07.955Z,68.90
2023-08-14T23:11:35.879Z,68.90
2023-08-14T23:14:05.329Z,68.90
2023-08-14T23:16:33.206Z,69.10
2023-08-14T23:19:01.010Z,69.30
2023-08-14T23:21:28.853Z,69.40
2023-08-14T23:23:56.661Z,69.60
2023-08-14T23:26:24.610Z,69.50
2023-08-14T23:28:52.592Z,69.50
2023-08-14T23:31:22.817Z,69.80
2023-08-14T23:33:50.713Z,69.60
2023-08-14T23:36:18.597Z,69.70
2023-08-14T23:38:46.388Z,69.80
2023-08-14T23:41:14.152Z,70.20
2023-08-14T23:43:41.980Z,70.20
2023-08-14T23:46:10.017Z,70.20
2023-08-14T23:48:39.205Z,70.30
2023-08-14T23:51:07.083Z,70.40
2023-08-14T23:53:35.368Z,70.50
2023-08-14T23:56:03.145Z,70.70
2023-08-14T23:58:30.993Z,70.60
